sensor_id;sensor_type;location;lat;lon;timestamp;pressure;altitude;pressure_sealevel;temperature;humidity
66381;BME280;53177;52.648;1.214;2023-11-21T00:00:14;100731.63;;;9.46;100.00
66381;BME280;53177;52.648;1.214;2023-11-21T00:02:41;100731.63;;;9.46;100.00
66381;BME280;53177;52.648;1.214;2023-11-21T00:05:10;100736.06;;;9.46;100.00
66381;BME280;53177;52.648;1.214;2023-11-21T00:07:37;100731.69;;;9.45;100.00
66381;BME280;53177;52.648;1.214;2023-11-21T00:10:03;100744.00;;;9.44;100.00
66381;BME280;53177;52.648;1.214;2023-11-21T00:12:30;100735.22;;;9.44;100.00
66381;BME280;53177;52.648;1.214;2023-11-21T00:14:57;100742.25;;;9.43;100.00
66381;BME280;53177;52.648;1.214;2023-11-21T00:17:23;100743.19;;;9.42;100.00
66381;BME280;53177;52.648;1.214;2023-11-21T00:19:48;100742.31;;;9.42;100.00
66381;BME280;53177;52.648;1.214;2023-11-21T00:22:13;100744.94;;;9.42;100.00
66381;BME280;53177;52.648;1.214;2023-11-21T00:24:39;100744.94;;;9.40;100.00
66381;BME280;53177;52.648;1.214;2023-11-21T00:27:04;100747.59;;;9.39;100.00
66381;BME280;53177;52.648;1.214;2023-11-21T00:29:31;100753.75;;;9.39;100.00
66381;BME280;53177;52.648;1.214;2023-11-21T00:31:56;100761.72;;;9.38;100.00
66381;BME280;53177;52.648;1.214;2023-11-21T00:34:21;100760.84;;;9.37;100.00
66381;BME280;53177;52.648;1.214;2023-11-21T00:36:47;100762.59;;;9.37;100.00
66381;BME280;53177;52.648;1.214;2023-11-21T00:39:12;100767.88;;;9.37;100.00
66381;BME280;53177;52.648;1.214;2023-11-21T00:41:38;100769.66;;;9.36;100.00
66381;BME280;53177;52.648;1.214;2023-11-21T00:44:03;100774.94;;;9.36;100.00
66381;BME280;53177;52.648;1.214;2023-11-21T00:46:29;100769.69;;;9.35;100.00
66381;BME280;53177;52.648;1.214;2023-11-21T00:48:55;100771.47;;;9.33;100.00
66381;BME280;53177;52.648;1.214;2023-11-21T00:51:21;100772.34;;;9.32;100.00
66381;BME280;53177;52.648;1.214;2023-11-21T00:53:47;100775.88;;;9.32;100.00
66381;BME280;53177;52.648;1.214;2023-11-21T00:56:13;100776.78;;;9.31;100.00
66381;BME280;53177;52.648;1.214;2023-11-21T00:58:39;100781.22;;;9.29;100.00
66381;BME280;53177;52.648;1.214;2023-11-21T01:01:09;100789.13;;;9.29;100.00
66381;BME280;53177;52.648;1.214;2023-11-21T01:03:34;100791.75;;;9.29;100.00
66381;BME280;53177;52.648;1.214;2023-11-21T01:06:00;100793.50;;;9.30;100.00
66381;BME280;53177;52.648;1.214;2023-11-21T01:08:25;100799.69;;;9.29;100.00
66381;BME280;53177;52.648;1.214;2023-11-21T01:10:53;100797.03;;;9.29;100.00
66381;BME280;53177;52.648;1.214;2023-11-21T01:13:20;100805.84;;;9.29;100.00
66381;BME280;53177;52.648;1.214;2023-11-21T01:15:46;100812.88;;;9.31;100.00
66381;BME280;53177;52.648;1.214;2023-11-21T01:18:11;100819.03;;;9.29;100.00
66381;BME280;53177;52.648;1.214;2023-11-21T01:20:37;100829.59;;;9.29;100.00
66381;BME280;53177;52.648;1.214;2023-11-21T01:23:02;100823.44;;;9.29;100.00
66381;BME280;53177;52.648;1.214;2023-11-21T01:25:28;100824.31;;;9.28;100.00
66381;BME280;53177;52.648;1.214;2023-11-21T01:27:53;100830.50;;;9.27;100.00
66381;BME280;53177;52.648;1.214;2023-11-21T01:30:19;100834.00;;;9.27;100.00
66381;BME280;53177;52.648;1.214;2023-11-21T01:32:44;100834.03;;;9.24;100.00
66381;BME280;53177;52.648;1.214;2023-11-21T01:35:10;100844.59;;;9.24;100.00
66381;BME280;53177;52.648;1.214;2023-11-21T01:37:36;100850.75;;;9.26;100.00
66381;BME280;53177;52.648;1.214;2023-11-21T01:40:02;100856.03;;;9.26;100.00
66381;BME280;53177;52.648;1.214;2023-11-21T01:42:30;100852.50;;;9.26;100.00
66381;BME280;53177;52.648;1.214;2023-11-21T01:44:55;100851.63;;;9.25;100.00
66381;BME280;53177;52.648;1.214;2023-11-21T01:47:21;100859.56;;;9.24;100.00
66381;BME280;53177;52.648;1.214;2023-11-21T01:49:46;100864.81;;;9.25;100.00
66381;BME280;53177;52.648;1.214;2023-11-21T01:52:13;100869.22;;;9.26;100.00
66381;BME280;53177;52.648;1.214;2023-11-21T01:54:40;100866.56;;;9.26;100.00
66381;BME280;53177;52.648;1.214;2023-11-21T01:57:06;100883.28;;;9.27;100.00
66381;BME280;53177;52.648;1.214;2023-11-21T01:59:39;100874.50;;;9.25;100.00
66381;BME280;53177;52.648;1.214;2023-11-21T02:02:07;100878.03;;;9.24;100.00
66381;BME280;53177;52.648;1.214;2023-11-21T02:04:33;100880.66;;;9.25;100.00
66381;BME280;53177;52.648;1.214;2023-11-21T02:06:59;100881.53;;;9.26;100.00
66381;BME280;53177;52.648;1.214;2023-11-21T02:09:28;100882.41;;;9.26;100.00
66381;BME280;53177;52.648;1.214;2023-11-21T02:11:55;100888.56;;;9.25;100.00
66381;BME280;53177;52.648;1.214;2023-11-21T02:14:21;100891.22;;;9.27;100.00
66381;BME280;53177;52.648;1.214;2023-11-21T02:16:51;100889.44;;;9.26;100.00
66381;BME280;53177;52.648;1.214;2023-11-21T02:19:21;100900.88;;;9.26;100.00
66381;BME280;53177;52.648;1.214;2023-11-21T02:21:49;100899.09;;;9.28;100.00
66381;BME280;53177;52.648;1.214;2023-11-21T02:24:15;100903.47;;;9.28;100.00
66381;BME280;53177;52.648;1.214;2023-11-21T02:26:42;100902.59;;;9.27;100.00
66381;BME280;53177;52.648;1.214;2023-11-21T02:29:08;100907.03;;;9.27;100.00
66381;BME280;53177;52.648;1.214;2023-11-21T02:31:37;100907.88;;;9.29;100.00
66381;BME280;53177;52.648;1.214;2023-11-21T02:34:10;100907.03;;;9.27;100.00
66381;BME280;53177;52.648;1.214;2023-11-21T02:36:38;100914.06;;;9.26;100.00
66381;BME280;53177;52.648;1.214;2023-11-21T02:39:04;100909.69;;;9.27;100.00
66381;BME280;53177;52.648;1.214;2023-11-21T02:41:29;100914.03;;;9.28;100.00
66381;BME280;53177;52.648;1.214;2023-11-21T02:43:55;100912.31;;;9.25;100.00
66381;BME280;53177;52.648;1.214;2023-11-21T02:46:20;100919.34;;;9.26;100.00
66381;BME280;53177;52.648;1.214;2023-11-21T02:48:46;100918.44;;;9.27;100.00
66381;BME280;53177;52.648;1.214;2023-11-21T02:51:11;100922.00;;;9.26;100.00
66381;BME280;53177;52.648;1.214;2023-11-21T02:53:36;100931.63;;;9.27;100.00
66381;BME280;53177;52.648;1.214;2023-11-21T02:56:04;100932.50;;;9.28;100.00
66381;BME280;53177;52.648;1.214;2023-11-21T02:58:29;100931.63;;;9.29;100.00
66381;BME280;53177;52.648;1.214;2023-11-21T03:00:55;100934.25;;;9.29;100.00
66381;BME280;53177;52.648;1.214;2023-11-21T03:03:21;100928.97;;;9.29;100.00
66381;BME280;53177;52.648;1.214;2023-11-21T03:05:49;100934.28;;;9.27;100.00
66381;BME280;53177;52.648;1.214;2023-11-21T03:08:14;100929.91;;;9.26;100.00
66381;BME280;53177;52.648;1.214;2023-11-21T03:10:39;100936.94;;;9.26;100.00
66381;BME280;53177;52.648;1.214;2023-11-21T03:13:05;100937.81;;;9.26;100.00
66381;BME280;53177;52.648;1.214;2023-11-21T03:15:30;100938.69;;;9.27;100.00
66381;BME280;53177;52.648;1.214;2023-11-21T03:17:58;100944.88;;;9.26;100.00
66381;BME280;53177;52.648;1.214;2023-11-21T03:20:24;100951.03;;;9.25;100.00
66381;BME280;53177;52.648;1.214;2023-11-21T03:22:50;100952.78;;;9.26;100.00
66381;BME280;53177;52.648;1.214;2023-11-21T03:25:16;100945.75;;;9.25;100.00
66381;BME280;53177;52.648;1.214;2023-11-21T03:27:42;100954.53;;;9.25;100.00
66381;BME280;53177;52.648;1.214;2023-11-21T03:30:08;100958.94;;;9.26;100.00
66381;BME280;53177;52.648;1.214;2023-11-21T03:32:34;100956.31;;;9.25;100.00
66381;BME280;53177;52.648;1.214;2023-11-21T03:35:00;100961.56;;;9.26;100.00
66381;BME280;53177;52.648;1.214;2023-11-21T03:37:27;100968.56;;;9.27;100.00
66381;BME280;53177;52.648;1.214;2023-11-21T03:39:52;100965.97;;;9.26;100.00
66381;BME280;53177;52.648;1.214;2023-11-21T03:42:18;100973.00;;;9.25;100.00
66381;BME280;53177;52.648;1.214;2023-11-21T03:44:43;100972.13;;;9.26;100.00
66381;BME280;53177;52.648;1.214;2023-11-21T03:47:09;100983.56;;;9.27;100.00
66381;BME280;53177;52.648;1.214;2023-11-21T03:49:35;100990.56;;;9.28;100.00
66381;BME280;53177;52.648;1.214;2023-11-21T03:52:00;100985.31;;;9.26;100.00
66381;BME280;53177;52.648;1.214;2023-11-21T03:54:25;100989.72;;;9.26;100.00
66381;BME280;53177;52.648;1.214;2023-11-21T03:56:51;100993.25;;;9.25;100.00
66381;BME280;53177;52.648;1.214;2023-11-21T03:59:17;100990.59;;;9.25;100.00
66381;BME280;53177;52.648;1.214;2023-11-21T04:01:42;100995.94;;;9.23;100.00
66381;BME280;53177;52.648;1.214;2023-11-21T04:04:08;100996.78;;;9.24;100.00
66381;BME280;53177;52.648;1.214;2023-11-21T04:06:33;101001.19;;;9.23;100.00
66381;BME280;53177;52.648;1.214;2023-11-21T04:08:58;101012.59;;;9.24;100.00
66381;BME280;53177;52.648;1.214;2023-11-21T04:11:24;101012.63;;;9.22;100.00
66381;BME280;53177;52.648;1.214;2023-11-21T04:13:49;101008.25;;;9.23;100.00
66381;BME280;53177;52.648;1.214;2023-11-21T04:16:15;101014.41;;;9.22;100.00
66381;BME280;53177;52.648;1.214;2023-11-21T04:18:40;101013.53;;;9.23;100.00
66381;BME280;53177;52.648;1.214;2023-11-21T04:21:06;101022.31;;;9.22;100.00
66381;BME280;53177;52.648;1.214;2023-11-21T04:23:31;101024.06;;;9.23;100.00
66381;BME280;53177;52.648;1.214;2023-11-21T04:25:59;101021.44;;;9.23;100.00
66381;BME280;53177;52.648;1.214;2023-11-21T04:28:27;101028.47;;;9.22;100.00
66381;BME280;53177;52.648;1.214;2023-11-21T04:30:52;101032.88;;;9.23;100.00
66381;BME280;53177;52.648;1.214;2023-11-21T04:33:18;101036.38;;;9.22;100.00
66381;BME280;53177;52.648;1.214;2023-11-21T04:35:43;101041.66;;;9.22;100.00
66381;BME280;53177;52.648;1.214;2023-11-21T04:38:09;101046.91;;;9.24;100.00
66381;BME280;53177;52.648;1.214;2023-11-21T04:40:34;101037.28;;;9.23;100.00
66381;BME280;53177;52.648;1.214;2023-11-21T04:43:00;101052.22;;;9.22;100.00
66381;BME280;53177;52.648;1.214;2023-11-21T04:45:26;101046.94;;;9.22;100.00
66381;BME280;53177;52.648;1.214;2023-11-21T04:47:52;101063.66;;;9.23;100.00
66381;BME280;53177;52.648;1.214;2023-11-21T04:50:19;101061.00;;;9.23;100.00
66381;BME280;53177;52.648;1.214;2023-11-21T04:52:44;101068.06;;;9.22;100.00
66381;BME280;53177;52.648;1.214;2023-11-21T04:55:10;101070.66;;;9.24;100.00
66381;BME280;53177;52.648;1.214;2023-11-21T04:57:36;101076.84;;;9.23;100.00
66381;BME280;53177;52.648;1.214;2023-11-21T05:00:02;101080.31;;;9.25;100.00
66381;BME280;53177;52.648;1.214;2023-11-21T05:02:31;101080.38;;;9.23;100.00
66381;BME280;53177;52.648;1.214;2023-11-21T05:04:56;101082.97;;;9.25;100.00
66381;BME280;53177;52.648;1.214;2023-11-21T05:07:22;101090.88;;;9.25;100.00
66381;BME280;53177;52.648;1.214;2023-11-21T05:09:47;101084.72;;;9.24;100.00
66381;BME280;53177;52.648;1.214;2023-11-21T05:12:13;101098.78;;;9.25;100.00
66381;BME280;53177;52.648;1.214;2023-11-21T05:14:39;101097.91;;;9.26;100.00
66381;BME280;53177;52.648;1.214;2023-11-21T05:17:05;101100.56;;;9.26;100.00
66381;BME280;53177;52.648;1.214;2023-11-21T05:19:30;101104.94;;;9.25;100.00
66381;BME280;53177;52.648;1.214;2023-11-21T05:21:56;101114.63;;;9.25;100.00
66381;BME280;53177;52.648;1.214;2023-11-21T05:24:21;101119.94;;;9.23;100.00
66381;BME280;53177;52.648;1.214;2023-11-21T05:26:47;101120.81;;;9.22;100.00
66381;BME280;53177;52.648;1.214;2023-11-21T05:29:12;101119.94;;;9.23;100.00
66381;BME280;53177;52.648;1.214;2023-11-21T05:31:38;101124.34;;;9.23;100.00
66381;BME280;53177;52.648;1.214;2023-11-21T05:34:04;101127.88;;;9.20;100.00
66381;BME280;53177;52.648;1.214;2023-11-21T05:36:33;101136.69;;;9.19;100.00
66381;BME280;53177;52.648;1.214;2023-11-21T05:38:58;101140.22;;;9.17;100.00
66381;BME280;53177;52.648;1.214;2023-11-21T05:41:24;101144.66;;;9.13;100.00
66381;BME280;53177;52.648;1.214;2023-11-21T05:43:50;101143.78;;;9.13;100.00
66381;BME280;53177;52.648;1.214;2023-11-21T05:46:16;101151.69;;;9.13;100.00
66381;BME280;53177;52.648;1.214;2023-11-21T05:48:41;101160.53;;;9.10;100.00
66381;BME280;53177;52.648;1.214;2023-11-21T05:51:07;101160.53;;;9.10;100.00
66381;BME280;53177;52.648;1.214;2023-11-21T05:53:33;101154.41;;;9.08;100.00
66381;BME280;53177;52.648;1.214;2023-11-21T05:55:59;101157.91;;;9.07;100.00
66381;BME280;53177;52.648;1.214;2023-11-21T05:58:24;101157.91;;;9.07;100.00
66381;BME280;53177;52.648;1.214;2023-11-21T06:00:50;101162.34;;;9.04;100.00
66381;BME280;53177;52.648;1.214;2023-11-21T06:03:15;101160.63;;;9.00;100.00
66381;BME280;53177;52.648;1.214;2023-11-21T06:05:42;101171.19;;;9.00;100.00
66381;BME280;53177;52.648;1.214;2023-11-21T06:08:08;101166.78;;;8.99;100.00
66381;BME280;53177;52.648;1.214;2023-11-21T06:10:35;101173.84;;;8.97;100.00
66381;BME280;53177;52.648;1.214;2023-11-21T06:13:00;101169.44;;;8.96;100.00
66381;BME280;53177;52.648;1.214;2023-11-21T06:15:25;101181.78;;;8.94;100.00
66381;BME280;53177;52.648;1.214;2023-11-21T06:17:51;101180.91;;;8.93;100.00
66381;BME280;53177;52.648;1.214;2023-11-21T06:20:20;101179.16;;;8.91;100.00
66381;BME280;53177;52.648;1.214;2023-11-21T06:22:48;101180.94;;;8.89;100.00
66381;BME280;53177;52.648;1.214;2023-11-21T06:25:14;101175.69;;;8.86;100.00
66381;BME280;53177;52.648;1.214;2023-11-21T06:27:44;101183.66;;;8.83;100.00
66381;BME280;53177;52.648;1.214;2023-11-21T06:30:10;101181.88;;;8.82;100.00
66381;BME280;53177;52.648;1.214;2023-11-21T06:32:38;101188.03;;;8.80;100.00
66381;BME280;53177;52.648;1.214;2023-11-21T06:35:04;101198.63;;;8.79;100.00
66381;BME280;53177;52.648;1.214;2023-11-21T06:37:30;101209.13;;;8.80;100.00
66381;BME280;53177;52.648;1.214;2023-11-21T06:39:56;101224.06;;;8.82;100.00
66381;BME280;53177;52.648;1.214;2023-11-21T06:42:22;101224.94;;;8.84;100.00
66381;BME280;53177;52.648;1.214;2023-11-21T06:44:49;101233.72;;;8.86;100.00
66381;BME280;53177;52.648;1.214;2023-11-21T06:47:17;101232.81;;;8.88;100.00
66381;BME280;53177;52.648;1.214;2023-11-21T06:49:43;101240.72;;;8.90;100.00
66381;BME280;53177;52.648;1.214;2023-11-21T06:52:09;101244.25;;;8.90;100.00
66381;BME280;53177;52.648;1.214;2023-11-21T06:54:34;101252.13;;;8.92;100.00
66381;BME280;53177;52.648;1.214;2023-11-21T06:57:00;101253.00;;;8.92;100.00
66381;BME280;53177;52.648;1.214;2023-11-21T06:59:28;101256.50;;;8.96;100.00
66381;BME280;53177;52.648;1.214;2023-11-21T07:01:53;101255.63;;;8.95;100.00
66381;BME280;53177;52.648;1.214;2023-11-21T07:04:19;101257.41;;;8.93;100.00
66381;BME280;53177;52.648;1.214;2023-11-21T07:06:48;101270.59;;;8.93;100.00
66381;BME280;53177;52.648;1.214;2023-11-21T07:09:16;101269.72;;;8.93;100.00
66381;BME280;53177;52.648;1.214;2023-11-21T07:11:50;101280.25;;;8.93;100.00
66381;BME280;53177;52.648;1.214;2023-11-21T07:14:21;101284.66;;;8.92;100.00
66381;BME280;53177;52.648;1.214;2023-11-21T07:16:48;101291.69;;;8.92;100.00
66381;BME280;53177;52.648;1.214;2023-11-21T07:19:14;101301.34;;;8.91;100.00
66381;BME280;53177;52.648;1.214;2023-11-21T07:21:40;101299.59;;;8.92;100.00
66381;BME280;53177;52.648;1.214;2023-11-21T07:24:06;101311.03;;;8.92;100.00
66381;BME280;53177;52.648;1.214;2023-11-21T07:26:33;101308.41;;;8.94;100.00
66381;BME280;53177;52.648;1.214;2023-11-21T07:28:59;101311.03;;;8.94;100.00
66381;BME280;53177;52.648;1.214;2023-11-21T07:31:25;101318.94;;;8.94;100.00
66381;BME280;53177;52.648;1.214;2023-11-21T07:33:51;101327.75;;;8.94;100.00
66381;BME280;53177;52.648;1.214;2023-11-21T07:36:17;101332.09;;;8.95;100.00
66381;BME280;53177;52.648;1.214;2023-11-21T07:38:46;101326.84;;;8.95;100.00
66381;BME280;53177;52.648;1.214;2023-11-21T07:41:11;101337.38;;;8.95;100.00
66381;BME280;53177;52.648;1.214;2023-11-21T07:43:41;101345.31;;;8.97;100.00
66381;BME280;53177;52.648;1.214;2023-11-21T07:46:06;101345.31;;;8.97;100.00
66381;BME280;53177;52.648;1.214;2023-11-21T07:48:33;101335.59;;;8.99;100.00
66381;BME280;53177;52.648;1.214;2023-11-21T07:51:00;101347.91;;;9.00;100.00
66381;BME280;53177;52.648;1.214;2023-11-21T07:53:26;101352.31;;;9.01;100.00
66381;BME280;53177;52.648;1.214;2023-11-21T07:55:54;101355.84;;;9.01;100.00
66381;BME280;53177;52.648;1.214;2023-11-21T07:58:19;101357.56;;;9.02;100.00
66381;BME280;53177;52.648;1.214;2023-11-21T08:00:44;101365.47;;;9.04;100.00
66381;BME280;53177;52.648;1.214;2023-11-21T08:03:10;101371.63;;;9.04;100.00
66381;BME280;53177;52.648;1.214;2023-11-21T08:05:36;101373.41;;;9.05;100.00
66381;BME280;53177;52.648;1.214;2023-11-21T08:08:02;101382.16;;;9.09;100.00
66381;BME280;53177;52.648;1.214;2023-11-21T08:10:28;101384.81;;;9.07;100.00
66381;BME280;53177;52.648;1.214;2023-11-21T08:12:55;101391.84;;;9.08;100.00
66381;BME280;53177;52.648;1.214;2023-11-21T08:15:20;101391.81;;;9.10;100.00
66381;BME280;53177;52.648;1.214;2023-11-21T08:17:46;101394.44;;;9.11;100.00
66381;BME280;53177;52.648;1.214;2023-11-21T08:20:13;101396.22;;;9.12;100.00
66381;BME280;53177;52.648;1.214;2023-11-21T08:22:44;101403.22;;;9.13;100.00
66381;BME280;53177;52.648;1.214;2023-11-21T08:25:10;101406.78;;;9.12;100.00
66381;BME280;53177;52.648;1.214;2023-11-21T08:27:35;101408.53;;;9.12;100.00
66381;BME280;53177;52.648;1.214;2023-11-21T08:30:02;101415.53;;;9.16;100.00
66381;BME280;53177;52.648;1.214;2023-11-21T08:32:29;101424.31;;;9.16;100.00
66381;BME280;53177;52.648;1.214;2023-11-21T08:35:00;101422.56;;;9.14;100.00
66381;BME280;53177;52.648;1.214;2023-11-21T08:37:26;101441.94;;;9.16;100.00
66381;BME280;53177;52.648;1.214;2023-11-21T08:39:58;101434.88;;;9.19;100.00
66381;BME280;53177;52.648;1.214;2023-11-21T08:42:24;101438.38;;;9.18;100.00
66381;BME280;53177;52.648;1.214;2023-11-21T08:44:50;101455.97;;;9.16;100.00
66381;BME280;53177;52.648;1.214;2023-11-21T08:47:16;101456.88;;;9.20;100.00
66381;BME280;53177;52.648;1.214;2023-11-21T08:49:41;101455.09;;;9.17;100.00
66381;BME280;53177;52.648;1.214;2023-11-21T08:52:07;101465.63;;;9.22;100.00
66381;BME280;53177;52.648;1.214;2023-11-21T08:54:36;101464.75;;;9.23;100.00
66381;BME280;53177;52.648;1.214;2023-11-21T08:57:02;101463.88;;;9.22;100.00
66381;BME280;53177;52.648;1.214;2023-11-21T08:59:28;101463.84;;;9.25;100.00
66381;BME280;53177;52.648;1.214;2023-11-21T09:01:53;101479.69;;;9.27;100.00
66381;BME280;53177;52.648;1.214;2023-11-21T09:04:19;101480.53;;;9.32;100.00
66381;BME280;53177;52.648;1.214;2023-11-21T09:06:44;101477.03;;;9.30;100.00
66381;BME280;53177;52.648;1.214;2023-11-21T09:09:10;101487.56;;;9.32;100.00
66381;BME280;53177;52.648;1.214;2023-11-21T09:11:36;101490.22;;;9.33;100.00
66381;BME280;53177;52.648;1.214;2023-11-21T09:14:02;101490.22;;;9.35;100.00
66381;BME280;53177;52.648;1.214;2023-11-21T09:16:28;101503.38;;;9.36;100.00
66381;BME280;53177;52.648;1.214;2023-11-21T09:18:54;101507.78;;;9.37;100.00
66381;BME280;53177;52.648;1.214;2023-11-21T09:21:19;101509.53;;;9.40;100.00
66381;BME280;53177;52.648;1.214;2023-11-21T09:23:44;101512.16;;;9.46;100.00
66381;BME280;53177;52.648;1.214;2023-11-21T09:26:11;101513.91;;;9.45;100.00
66381;BME280;53177;52.648;1.214;2023-11-21T09:28:36;101521.81;;;9.44;100.00
66381;BME280;53177;52.648;1.214;2023-11-21T09:31:07;101525.31;;;9.47;100.00
66381;BME280;53177;52.648;1.214;2023-11-21T09:33:34;101519.13;;;9.50;100.00
66381;BME280;53177;52.648;1.214;2023-11-21T09:36:00;101520.03;;;9.53;100.00
66381;BME280;53177;52.648;1.214;2023-11-21T09:38:26;101522.69;;;9.47;100.00
66381;BME280;53177;52.648;1.214;2023-11-21T09:40:54;101532.38;;;9.48;100.00
66381;BME280;53177;52.648;1.214;2023-11-21T09:43:20;101532.34;;;9.50;100.00
66381;BME280;53177;52.648;1.214;2023-11-21T09:45:52;101527.03;;;9.54;100.00
66381;BME280;53177;52.648;1.214;2023-11-21T09:48:19;101518.19;;;9.63;100.00
66381;BME280;53177;52.648;1.214;2023-11-21T09:50:47;101519.91;;;9.68;100.00
66381;BME280;53177;52.648;1.214;2023-11-21T09:55:42;101543.72;;;9.67;100.00
66381;BME280;53177;52.648;1.214;2023-11-21T09:58:09;101543.69;;;9.70;100.00
66381;BME280;53177;52.648;1.214;2023-11-21T10:00:41;101540.16;;;9.71;100.00
66381;BME280;53177;52.648;1.214;2023-11-21T10:03:07;101541.91;;;9.72;100.00
66381;BME280;53177;52.648;1.214;2023-11-21T10:05:34;101549.78;;;9.79;100.00
66381;BME280;53177;52.648;1.214;2023-11-21T10:08:00;101555.94;;;9.80;100.00
66381;BME280;53177;52.648;1.214;2023-11-21T10:10:28;101555.94;;;9.80;100.00
66381;BME280;53177;52.648;1.214;2023-11-21T10:12:56;101558.59;;;9.75;100.00
66381;BME280;53177;52.648;1.214;2023-11-21T10:15:23;101552.47;;;9.75;100.00
66381;BME280;53177;52.648;1.214;2023-11-21T10:17:53;101568.34;;;9.67;100.00
66381;BME280;53177;52.648;1.214;2023-11-21T10:20:20;101578.09;;;9.59;100.00
66381;BME280;53177;52.648;1.214;2023-11-21T10:22:48;101575.47;;;9.53;100.00
66381;BME280;53177;52.648;1.214;2023-11-21T10:25:14;101582.53;;;9.53;100.00
66381;BME280;53177;52.648;1.214;2023-11-21T10:27:40;101590.44;;;9.48;100.00
66381;BME280;53177;52.648;1.214;2023-11-21T10:30:07;101597.53;;;9.40;100.00
66381;BME280;53177;52.648;1.214;2023-11-21T10:32:39;101601.09;;;9.27;100.00
66381;BME280;53177;52.648;1.214;2023-11-21T10:35:06;101603.72;;;9.25;100.00
66381;BME280;53177;52.648;1.214;2023-11-21T10:37:37;101601.09;;;9.27;100.00
66381;BME280;53177;52.648;1.214;2023-11-21T10:40:06;101601.97;;;9.24;100.00
66381;BME280;53177;52.648;1.214;2023-11-21T10:42:32;101602.84;;;9.25;100.00
66381;BME280;53177;52.648;1.214;2023-11-21T10:44:58;101615.16;;;9.26;100.00
66381;BME280;53177;52.648;1.214;2023-11-21T10:47:23;101624.00;;;9.23;100.00
66381;BME280;53177;52.648;1.214;2023-11-21T10:49:49;101636.31;;;9.18;100.00
66381;BME280;53177;52.648;1.214;2023-11-21T10:52:14;101624.88;;;9.19;100.00
66381;BME280;53177;52.648;1.214;2023-11-21T10:54:45;101627.50;;;9.19;100.00
66381;BME280;53177;52.648;1.214;2023-11-21T10:57:13;101624.84;;;9.21;100.00
66381;BME280;53177;52.648;1.214;2023-11-21T10:59:42;101626.63;;;9.22;100.00
66381;BME280;53177;52.648;1.214;2023-11-21T11:02:30;101645.97;;;9.18;100.00
66381;BME280;53177;52.648;1.214;2023-11-21T11:04:59;101644.22;;;9.15;100.00
66381;BME280;53177;52.648;1.214;2023-11-21T11:07:27;101645.13;;;9.07;100.00
66381;BME280;53177;52.648;1.214;2023-11-21T11:09:58;101640.72;;;9.04;100.00
66381;BME280;53177;52.648;1.214;2023-11-21T11:12:23;101650.44;;;8.98;100.00
66381;BME280;53177;52.648;1.214;2023-11-21T11:14:49;101646.88;;;8.91;100.00
66381;BME280;53177;52.648;1.214;2023-11-21T11:17:16;101662.72;;;8.91;100.00
66381;BME280;53177;52.648;1.214;2023-11-21T11:19:44;101653.91;;;8.95;100.00
66381;BME280;53177;52.648;1.214;2023-11-21T11:27:53;101670.66;;;8.87;100.00
66381;BME280;53177;52.648;1.214;2023-11-21T11:32:58;101673.28;;;8.79;100.00
66381;BME280;53177;52.648;1.214;2023-11-21T11:36:01;101683.81;;;8.84;100.00
66381;BME280;53177;52.648;1.214;2023-11-21T11:38:31;101682.09;;;8.83;100.00
66381;BME280;53177;52.648;1.214;2023-11-21T11:41:01;101685.59;;;8.86;100.00
66381;BME280;53177;52.648;1.214;2023-11-21T11:43:29;101684.69;;;8.84;100.00
66381;BME280;53177;52.648;1.214;2023-11-21T11:45:57;101689.09;;;8.80;100.00
66381;BME280;53177;52.648;1.214;2023-11-21T11:48:25;101697.03;;;8.79;100.00
66381;BME280;53177;52.648;1.214;2023-11-21T11:51:13;101707.56;;;8.77;100.00
66381;BME280;53177;52.648;1.214;2023-11-21T11:53:47;101717.22;;;8.77;100.00
66381;BME280;53177;52.648;1.214;2023-11-21T11:58:44;101718.09;;;8.76;100.00
66381;BME280;53177;52.648;1.214;2023-11-21T12:01:11;101733.03;;;8.72;100.00
66381;BME280;53177;52.648;1.214;2023-11-21T12:03:37;101723.38;;;8.67;100.00
66381;BME280;53177;52.648;1.214;2023-11-21T12:06:02;101727.75;;;8.65;100.00
66381;BME280;53177;52.648;1.214;2023-11-21T12:08:28;101740.94;;;8.65;100.00
66381;BME280;53177;52.648;1.214;2023-11-21T12:10:57;101737.44;;;8.63;100.00
66381;BME280;53177;52.648;1.214;2023-11-21T12:13:22;101741.81;;;8.65;100.00
66381;BME280;53177;52.648;1.214;2023-11-21T12:15:48;101748.88;;;8.66;100.00
66381;BME280;53177;52.648;1.214;2023-11-21T12:18:14;101741.84;;;8.70;100.00
66381;BME280;53177;52.648;1.214;2023-11-21T12:20:40;101744.47;;;8.70;100.00
66381;BME280;53177;52.648;1.214;2023-11-21T12:23:06;101755.00;;;8.68;100.00
66381;BME280;53177;52.648;1.214;2023-11-21T12:25:34;101736.53;;;8.68;100.00
66381;BME280;53177;52.648;1.214;2023-11-21T12:28:02;101749.75;;;8.71;100.00
66381;BME280;53177;52.648;1.214;2023-11-21T12:30:30;101755.03;;;8.71;100.00
66381;BME280;53177;52.648;1.214;2023-11-21T12:32:58;101756.78;;;8.66;100.00
66381;BME280;53177;52.648;1.214;2023-11-21T12:35:25;101760.28;;;8.65;100.00
66381;BME280;53177;52.648;1.214;2023-11-21T12:37:52;101756.78;;;8.66;100.00
66381;BME280;53177;52.648;1.214;2023-11-21T12:40:19;101753.28;;;8.67;100.00
66381;BME280;53177;52.648;1.214;2023-11-21T12:42:51;101757.66;;;8.73;100.00
66381;BME280;53177;52.648;1.214;2023-11-21T12:47:46;101748.00;;;8.79;100.00
66381;BME280;53177;52.648;1.214;2023-11-21T12:50:12;101750.66;;;8.75;100.00
66381;BME280;53177;52.648;1.214;2023-11-21T12:52:46;101751.50;;;8.77;100.00
66381;BME280;53177;52.648;1.214;2023-11-21T12:55:18;101762.09;;;8.83;100.00
66381;BME280;53177;52.648;1.214;2023-11-21T12:57:44;101761.19;;;8.87;100.00
66381;BME280;53177;52.648;1.214;2023-11-21T13:00:12;101768.22;;;8.85;100.00
66381;BME280;53177;52.648;1.214;2023-11-21T13:02:51;101774.38;;;8.81;100.00